createdAt,value
2022-08-31T00:02:41.136Z,17.80
2022-08-31T00:05:09.693Z,17.80
2022-08-31T00:07:36.397Z,17.70
2022-08-31T00:10:18.684Z,17.70
2022-08-31T00:12:48.572Z,17.70
2022-08-31T00:15:18.610Z,17.70
2022-08-31T00:17:46.804Z,17.70
2022-08-31T00:20:32.350Z,17.60
2022-08-31T00:23:02.506Z,17.60
2022-08-31T00:25:29.160Z,17.60
2022-08-31T00:27:55.822Z,17.60
2022-08-31T00:30:23.316Z,17.50
2022-08-31T00:32:50.241Z,17.50
2022-08-31T00:35:17.243Z,17.60
2022-08-31T00:37:44.135Z,17.40
2022-08-31T00:40:11.352Z,17.40
2022-08-31T00:42:38.119Z,17.40
2022-08-31T00:45:06.181Z,17.40
2022-08-31T00:47:32.834Z,17.40
2022-08-31T00:50:00.391Z,17.40
2022-08-31T00:52:37.721Z,17.30
2022-08-31T00:55:17.910Z,17.50
2022-08-31T00:57:47.959Z,17.30
2022-08-31T01:00:18.799Z,17.30
2022-08-31T01:02:45.819Z,17.30
2022-08-31T01:05:13.847Z,17.20
2022-08-31T01:07:41.281Z,17.30
2022-08-31T01:10:09.118Z,17.30
2022-08-31T01:12:35.991Z,17.20
2022-08-31T01:15:06.207Z,17.20
2022-08-31T01:17:37.250Z,17.20
2022-08-31T01:20:20.226Z,17.20
2022-08-31T01:23:11.247Z,17.20
2022-08-31T01:25:39.663Z,17.10
2022-08-31T01:28:08.370Z,17.20
2022-08-31T01:30:35.828Z,17.10
2022-08-31T01:33:03.089Z,17.10
2022-08-31T01:35:30.013Z,17.00
2022-08-31T01:37:57.470Z,17.10
2022-08-31T01:40:44.233Z,17.10
2022-08-31T01:43:10.901Z,16.90
2022-08-31T01:45:37.593Z,17.10
2022-08-31T01:48:04.416Z,17.00
2022-08-31T01:50:31.059Z,16.80
2022-08-31T01:52:57.710Z,16.80
2022-08-31T01:55:24.416Z,16.90
2022-08-31T01:57:51.041Z,17.50
2022-08-31T02:00:17.932Z,16.70
2022-08-31T02:02:44.723Z,16.70
2022-08-31T02:05:12.072Z,16.70
2022-08-31T02:07:38.681Z,16.70
2022-08-31T02:10:05.837Z,16.70
2022-08-31T02:12:32.529Z,16.70
2022-08-31T02:14:59.177Z,16.80
2022-08-31T02:17:25.804Z,16.80
2022-08-31T02:19:52.431Z,16.60
2022-08-31T02:22:19.010Z,16.70
2022-08-31T02:24:45.572Z,16.60
2022-08-31T02:27:12.279Z,16.60
2022-08-31T02:29:39.046Z,16.60
2022-08-31T02:32:06.290Z,16.60
2022-08-31T02:34:33.027Z,16.60
2022-08-31T02:36:59.608Z,16.70
2022-08-31T02:39:26.295Z,16.60
2022-08-31T02:41:53.022Z,16.60
2022-08-31T02:44:19.632Z,16.70
2022-08-31T02:46:46.308Z,16.70
2022-08-31T02:49:13.547Z,16.60
2022-08-31T02:51:41.993Z,16.70
2022-08-31T02:54:09.012Z,16.50
2022-08-31T02:56:35.620Z,16.60
2022-08-31T02:59:02.240Z,16.40
2022-08-31T03:01:29.131Z,16.50
2022-08-31T03:03:56.284Z,16.30
2022-08-31T03:06:23.602Z,16.30
2022-08-31T03:08:50.811Z,16.20
2022-08-31T03:11:18.079Z,16.20
2022-08-31T03:13:45.066Z,16.10
2022-08-31T03:16:13.969Z,16.10
2022-08-31T03:18:41.334Z,16.00
2022-08-31T03:21:07.917Z,15.90
2022-08-31T03:23:34.549Z,15.80
2022-08-31T03:26:01.342Z,15.80
2022-08-31T03:28:27.935Z,15.90
2022-08-31T03:30:54.519Z,15.70
2022-08-31T03:33:21.139Z,15.70
2022-08-31T03:35:47.730Z,15.70
2022-08-31T03:38:15.807Z,15.60
2022-08-31T03:40:43.453Z,15.60
2022-08-31T03:43:11.993Z,15.60
2022-08-31T03:45:41.080Z,15.60
2022-08-31T03:48:12.612Z,15.50
2022-08-31T03:50:40.753Z,15.60
2022-08-31T03:53:08.882Z,15.60
2022-08-31T03:55:38.630Z,15.50
2022-08-31T03:58:06.052Z,15.50
2022-08-31T04:00:33.682Z,15.50
2022-08-31T04:03:01.432Z,15.30
2022-08-31T04:05:29.767Z,15.30
2022-08-31T04:07:56.851Z,15.40
2022-08-31T04:10:23.703Z,15.30
2022-08-31T04:12:50.867Z,15.30
2022-08-31T04:15:18.308Z,15.30
2022-08-31T04:17:46.476Z,15.20
2022-08-31T04:20:13.572Z,15.20
2022-08-31T04:22:40.185Z,15.20
2022-08-31T04:25:07.482Z,15.10
2022-08-31T04:27:34.034Z,15.10
2022-08-31T04:30:01.933Z,15.20
2022-08-31T04:32:28.481Z,15.00
2022-08-31T04:34:56.636Z,15.00
2022-08-31T04:37:23.486Z,15.00
2022-08-31T04:39:52.233Z,15.00
2022-08-31T04:42:19.184Z,14.90
2022-08-31T04:44:46.024Z,14.90
2022-08-31T04:47:12.875Z,15.00
2022-08-31T04:49:39.689Z,14.90
2022-08-31T04:52:06.689Z,14.80
2022-08-31T04:54:33.268Z,14.80
2022-08-31T04:57:00.306Z,14.80
2022-08-31T04:59:27.488Z,14.80
2022-08-31T05:01:55.561Z,14.80
2022-08-31T05:04:25.921Z,14.80
2022-08-31T05:06:52.549Z,14.80
2022-08-31T05:09:22.476Z,14.70
2022-08-31T05:11:50.969Z,14.70
2022-08-31T05:14:18.359Z,14.70
2022-08-31T05:16:45.827Z,14.90
2022-08-31T05:19:13.238Z,14.80
2022-08-31T05:21:42.120Z,14.80
2022-08-31T05:24:12.014Z,14.70
2022-08-31T05:26:42.353Z,13.50
2022-08-31T05:29:10.263Z,14.80
2022-08-31T05:31:38.292Z,14.90
2022-08-31T05:34:05.820Z,15.00
2022-08-31T05:36:33.053Z,15.00
2022-08-31T05:39:01.227Z,15.10
2022-08-31T05:41:29.266Z,15.10
2022-08-31T05:43:56.041Z,15.20
2022-08-31T05:46:23.085Z,15.30
2022-08-31T05:48:50.067Z,15.50
2022-08-31T05:51:18.368Z,15.60
2022-08-31T05:53:45.873Z,18.70
2022-08-31T05:56:20.003Z,16.00
2022-08-31T05:58:47.448Z,16.10
2022-08-31T06:01:24.581Z,16.10
2022-08-31T06:03:53.841Z,16.30
2022-08-31T06:06:21.144Z,16.50
2022-08-31T06:08:47.728Z,16.60
2022-08-31T06:11:19.325Z,16.90
2022-08-31T06:13:47.626Z,17.00
2022-08-31T06:16:15.015Z,17.20
2022-08-31T06:18:42.790Z,17.30
2022-08-31T06:21:12.458Z,17.30
2022-08-31T06:23:40.313Z,17.40
2022-08-31T06:26:12.672Z,17.50
2022-08-31T06:28:40.834Z,17.70
2022-08-31T06:31:12.656Z,17.80
2022-08-31T06:33:39.861Z,18.00
2022-08-31T06:36:14.500Z,18.30
2022-08-31T06:38:43.377Z,18.40
2022-08-31T06:41:22.174Z,18.50
2022-08-31T06:43:49.476Z,18.60
2022-08-31T06:46:18.245Z,18.70
2022-08-31T06:48:45.233Z,18.70
2022-08-31T06:51:13.272Z,18.70
2022-08-31T06:53:42.378Z,18.70
2022-08-31T06:56:21.013Z,18.70
2022-08-31T06:58:53.603Z,18.70
2022-08-31T07:01:34.835Z,18.70
2022-08-31T07:04:05.702Z,18.70
2022-08-31T07:06:35.945Z,18.80
2022-08-31T07:09:05.167Z,18.80
2022-08-31T07:11:38.163Z,18.70
2022-08-31T07:14:14.832Z,18.70
2022-08-31T07:16:42.790Z,18.70
2022-08-31T07:19:10.611Z,18.80
2022-08-31T07:21:48.345Z,18.70
2022-08-31T07:24:20.078Z,18.80
2022-08-31T07:26:49.618Z,18.80
2022-08-31T07:29:19.039Z,18.80
2022-08-31T07:31:49.114Z,18.70
2022-08-31T07:34:21.698Z,18.70
2022-08-31T07:37:07.703Z,18.60
2022-08-31T07:39:53.634Z,18.60
2022-08-31T07:42:28.656Z,18.50
2022-08-31T07:44:57.385Z,18.40
2022-08-31T07:47:27.070Z,18.40
2022-08-31T07:49:54.897Z,18.50
2022-08-31T07:52:26.162Z,18.30
2022-08-31T07:54:55.809Z,18.30
2022-08-31T07:57:25.688Z,18.30
2022-08-31T08:00:08.376Z,18.50
2022-08-31T08:02:39.087Z,18.30
2022-08-31T08:05:12.126Z,18.40
2022-08-31T08:07:40.394Z,18.40
2022-08-31T08:10:13.937Z,18.60
2022-08-31T08:12:47.038Z,18.40
2022-08-31T08:15:13.800Z,18.40
2022-08-31T08:17:40.582Z,18.50
2022-08-31T08:20:13.358Z,18.50
2022-08-31T08:22:54.033Z,18.50
2022-08-31T08:25:25.950Z,18.60
2022-08-31T08:27:54.740Z,18.60
2022-08-31T08:30:21.614Z,18.70
2022-08-31T08:32:48.258Z,18.80
2022-08-31T08:35:16.456Z,18.90
2022-08-31T08:37:58.511Z,18.90
2022-08-31T08:40:42.254Z,19.00
2022-08-31T08:43:16.154Z,19.00
2022-08-31T08:45:46.801Z,19.20
2022-08-31T08:48:16.670Z,19.10
2022-08-31T08:50:43.793Z,19.10
2022-08-31T08:53:13.376Z,19.20
2022-08-31T08:55:42.033Z,19.20
2022-08-31T08:58:13.548Z,19.40
2022-08-31T09:00:46.553Z,19.30
2022-08-31T09:03:30.770Z,19.40
2022-08-31T09:06:03.004Z,19.50
2022-08-31T09:08:47.727Z,19.60
2022-08-31T09:11:46.703Z,19.60
2022-08-31T09:14:51.925Z,19.70
2022-08-31T09:17:34.882Z,19.80
2022-08-31T09:20:04.101Z,19.80
2022-08-31T09:22:34.326Z,19.90
2022-08-31T09:25:02.633Z,20.00
2022-08-31T09:27:57.338Z,20.00
2022-08-31T09:30:45.768Z,20.10
2022-08-31T09:33:22.009Z,20.20
2022-08-31T09:35:51.642Z,20.40
2022-08-31T09:38:37.633Z,20.40
2022-08-31T09:41:08.231Z,20.50
2022-08-31T09:43:38.025Z,20.60
2022-08-31T09:46:28.033Z,20.50
2022-08-31T09:48:58.268Z,20.70
2022-08-31T09:51:28.062Z,20.80
2022-08-31T09:54:33.421Z,20.90
2022-08-31T09:57:02.511Z,21.00
2022-08-31T09:59:43.765Z,21.00
2022-08-31T10:02:33.369Z,21.10
2022-08-31T10:05:07.103Z,21.20
2022-08-31T10:08:04.368Z,21.20
2022-08-31T10:10:35.779Z,21.30
2022-08-31T10:13:08.473Z,21.30
2022-08-31T10:15:52.671Z,21.30
2022-08-31T10:18:26.201Z,21.20
2022-08-31T10:21:00.722Z,21.20
2022-08-31T10:23:34.776Z,21.30
2022-08-31T10:26:07.270Z,21.30
2022-08-31T10:28:53.868Z,21.30
2022-08-31T10:31:45.289Z,21.30
2022-08-31T10:34:44.127Z,21.40
2022-08-31T10:37:41.669Z,21.50
2022-08-31T10:40:10.644Z,21.60
2022-08-31T10:42:42.829Z,21.70
2022-08-31T10:45:18.814Z,21.70
2022-08-31T10:47:49.029Z,21.70
2022-08-31T10:50:45.023Z,20.60
2022-08-31T10:53:22.722Z,21.70
2022-08-31T10:55:59.145Z,21.70
2022-08-31T10:58:54.020Z,21.70
2022-08-31T11:01:32.412Z,21.80
2022-08-31T11:04:27.319Z,21.80
2022-08-31T11:07:04.462Z,22.00
2022-08-31T11:09:40.719Z,22.00
2022-08-31T11:12:18.322Z,22.10
2022-08-31T11:15:30.482Z,22.20
2022-08-31T11:18:36.118Z,22.20
2022-08-31T11:21:36.312Z,22.40
2022-08-31T11:24:37.145Z,22.60
2022-08-31T11:27:33.441Z,22.80
2022-08-31T11:30:28.946Z,22.90
2022-08-31T11:33:09.204Z,22.90
2022-08-31T11:36:07.393Z,22.80
2022-08-31T11:38:50.039Z,22.80
2022-08-31T11:41:48.374Z,22.70
2022-08-31T11:44:30.350Z,22.60
2022-08-31T11:47:14.484Z,22.40
2022-08-31T11:49:45.448Z,22.40
2022-08-31T11:52:24.404Z,22.40
2022-08-31T11:54:52.473Z,22.40
2022-08-31T11:57:35.630Z,22.60
2022-08-31T12:00:19.873Z,22.70
2022-08-31T12:03:02.783Z,22.80
2022-08-31T12:05:50.257Z,22.90
2022-08-31T12:08:17.954Z,23.00
2022-08-31T12:11:05.353Z,23.00
2022-08-31T12:13:54.518Z,23.00
2022-08-31T12:16:46.922Z,23.00
2022-08-31T12:19:43.302Z,23.00
2022-08-31T12:23:05.464Z,22.90
2022-08-31T12:25:40.681Z,22.80
2022-08-31T12:28:29.463Z,22.80
2022-08-31T12:30:58.208Z,22.80
2022-08-31T12:33:29.334Z,22.70
2022-08-31T12:36:16.093Z,22.70
2022-08-31T12:38:42.771Z,22.60
2022-08-31T12:41:14.272Z,22.60
2022-08-31T12:43:51.154Z,22.50
2022-08-31T12:46:32.301Z,22.50
2022-08-31T12:49:15.801Z,22.40
2022-08-31T12:51:56.618Z,22.40
2022-08-31T12:54:49.173Z,22.30
2022-08-31T12:57:40.733Z,22.30
2022-08-31T13:00:13.206Z,22.20
2022-08-31T13:02:45.241Z,22.20
2022-08-31T13:05:34.337Z,22.20
2022-08-31T13:08:01.434Z,22.20
2022-08-31T13:10:36.894Z,22.20
2022-08-31T13:13:09.375Z,22.10
2022-08-31T13:15:42.763Z,22.20
2022-08-31T13:18:15.558Z,22.20
2022-08-31T13:20:44.050Z,22.20
2022-08-31T13:23:15.053Z,22.20
2022-08-31T13:25:42.851Z,22.30
2022-08-31T13:28:15.137Z,22.30
2022-08-31T13:30:43.575Z,22.30
2022-08-31T13:33:24.949Z,22.40
2022-08-31T13:35:57.628Z,22.40
2022-08-31T13:38:36.324Z,22.40
2022-08-31T13:41:03.808Z,22.50
2022-08-31T13:43:34.381Z,22.50
2022-08-31T13:46:04.375Z,22.40
2022-08-31T13:48:38.018Z,22.40
2022-08-31T13:51:13.499Z,22.50
2022-08-31T13:53:42.422Z,22.50
2022-08-31T13:56:46.032Z,22.50
2022-08-31T13:59:35.324Z,22.50
2022-08-31T14:02:04.649Z,22.50
2022-08-31T14:04:48.403Z,22.50
2022-08-31T14:07:43.302Z,22.60
2022-08-31T14:10:18.016Z,22.60
2022-08-31T14:13:03.888Z,22.70
2022-08-31T14:15:50.264Z,22.80
2022-08-31T14:18:38.995Z,22.90
2022-08-31T14:21:23.050Z,23.00
2022-08-31T14:23:53.332Z,23.00
2022-08-31T14:26:25.992Z,23.10
2022-08-31T14:29:00.039Z,23.10
2022-08-31T14:31:37.047Z,23.10
2022-08-31T14:34:30.226Z,23.10
2022-08-31T14:37:06.215Z,23.00
2022-08-31T14:39:43.225Z,23.00
2022-08-31T14:42:26.345Z,21.80
2022-08-31T14:44:58.942Z,23.00
2022-08-31T14:47:31.617Z,23.00
2022-08-31T14:50:05.340Z,23.00
2022-08-31T14:52:37.837Z,22.90
2022-08-31T14:55:09.022Z,22.90
2022-08-31T14:57:36.178Z,22.90
2022-08-31T15:00:05.825Z,22.90
2022-08-31T15:02:33.676Z,23.00
2022-08-31T15:05:06.209Z,23.00
2022-08-31T15:07:35.137Z,23.00
2022-08-31T15:10:02.496Z,23.00
2022-08-31T15:12:29.082Z,23.00
2022-08-31T15:14:59.754Z,23.00
2022-08-31T15:17:28.936Z,23.00
2022-08-31T15:19:55.886Z,23.00
2022-08-31T15:22:26.041Z,23.00
2022-08-31T15:24:53.424Z,23.00
2022-08-31T15:27:23.309Z,23.00
2022-08-31T15:29:58.825Z,23.00
2022-08-31T15:32:25.453Z,23.10
2022-08-31T15:34:58.435Z,23.10
2022-08-31T15:37:31.595Z,23.10
2022-08-31T15:40:01.201Z,23.10
2022-08-31T15:42:29.353Z,23.10
2022-08-31T15:44:56.839Z,23.00
2022-08-31T15:47:44.567Z,22.90
2022-08-31T15:50:11.806Z,22.90
2022-08-31T15:52:48.899Z,22.70
2022-08-31T15:55:21.579Z,22.70
2022-08-31T15:57:48.429Z,22.60
2022-08-31T16:00:15.803Z,22.50
2022-08-31T16:02:43.438Z,22.50
2022-08-31T16:05:12.758Z,22.40
2022-08-31T16:07:40.457Z,22.40
2022-08-31T16:10:16.678Z,22.40
2022-08-31T16:12:46.015Z,22.50
2022-08-31T16:15:15.364Z,22.40
2022-08-31T16:17:42.667Z,22.50
2022-08-31T16:20:13.924Z,22.40
2022-08-31T16:22:43.129Z,22.50
2022-08-31T16:25:14.242Z,22.50
2022-08-31T16:27:43.294Z,22.60
2022-08-31T16:30:12.195Z,22.60
2022-08-31T16:32:39.241Z,22.60
2022-08-31T16:35:07.220Z,22.70
2022-08-31T16:37:35.156Z,22.70
2022-08-31T16:40:02.464Z,22.70
2022-08-31T16:42:29.189Z,22.70
2022-08-31T16:45:01.216Z,22.60
2022-08-31T16:47:29.192Z,22.60
2022-08-31T16:49:56.247Z,22.50
2022-08-31T16:52:27.420Z,22.50
2022-08-31T16:54:57.313Z,22.50
2022-08-31T16:57:27.615Z,22.50
2022-08-31T16:59:56.900Z,22.50
2022-08-31T17:02:25.012Z,22.40
2022-08-31T17:04:53.772Z,22.40
2022-08-31T17:07:23.153Z,22.40
2022-08-31T17:09:50.563Z,22.40
2022-08-31T17:12:21.520Z,22.30
2022-08-31T17:14:52.395Z,22.20
2022-08-31T17:17:23.149Z,22.20
2022-08-31T17:19:52.018Z,22.10
2022-08-31T17:22:25.536Z,22.10
2022-08-31T17:24:56.242Z,22.00
2022-08-31T17:27:24.282Z,22.00
2022-08-31T17:29:53.974Z,21.90
2022-08-31T17:32:24.358Z,21.90
2022-08-31T17:34:51.990Z,21.80
2022-08-31T17:37:26.438Z,21.80
2022-08-31T17:39:53.817Z,21.70
2022-08-31T17:42:22.342Z,21.70
2022-08-31T17:44:52.055Z,21.60
2022-08-31T17:47:20.331Z,21.60
2022-08-31T17:49:47.241Z,21.50
2022-08-31T17:52:14.097Z,21.50
2022-08-31T17:54:43.201Z,21.40
2022-08-31T17:57:15.334Z,21.40
2022-08-31T17:59:46.499Z,21.30
2022-08-31T18:02:17.468Z,21.30
2022-08-31T18:04:44.488Z,21.20
2022-08-31T18:07:12.085Z,21.20
2022-08-31T18:09:41.472Z,21.10
2022-08-31T18:12:08.900Z,21.10
2022-08-31T18:14:38.109Z,21.00
2022-08-31T18:17:08.651Z,20.90
2022-08-31T18:19:35.903Z,20.90
2022-08-31T18:22:03.046Z,20.80
2022-08-31T18:24:35.300Z,23.50
2022-08-31T18:27:04.287Z,20.70
2022-08-31T18:29:33.440Z,20.60
2022-08-31T18:32:04.047Z,20.60
2022-08-31T18:34:36.716Z,20.50
2022-08-31T18:37:04.759Z,20.50
2022-08-31T18:39:52.620Z,20.40
2022-08-31T18:42:39.187Z,20.30
2022-08-31T18:45:15.872Z,22.90
2022-08-31T18:47:43.333Z,20.20
2022-08-31T18:50:10.728Z,20.20
2022-08-31T18:52:39.684Z,20.00
2022-08-31T18:55:07.818Z,19.90
2022-08-31T18:57:36.444Z,19.90
2022-08-31T19:00:16.883Z,19.80
2022-08-31T19:02:44.579Z,19.80
2022-08-31T19:05:13.069Z,19.60
2022-08-31T19:07:41.278Z,19.60
2022-08-31T19:10:12.886Z,19.50
2022-08-31T19:12:42.945Z,19.50
2022-08-31T19:15:12.531Z,19.40
2022-08-31T19:17:41.852Z,19.30
2022-08-31T19:20:10.590Z,19.20
2022-08-31T19:22:38.506Z,19.20
2022-08-31T19:25:07.629Z,19.30
2022-08-31T19:27:35.298Z,19.00
2022-08-31T19:30:06.259Z,19.00
2022-08-31T19:32:34.280Z,18.90
2022-08-31T19:35:01.655Z,18.80
2022-08-31T19:37:31.352Z,18.90
2022-08-31T19:39:58.115Z,18.70
2022-08-31T19:42:40.299Z,18.50
2022-08-31T19:45:24.842Z,18.50
2022-08-31T19:47:52.046Z,18.40
2022-08-31T19:50:19.419Z,18.40
2022-08-31T19:52:47.186Z,18.30
2022-08-31T19:55:13.985Z,18.30
2022-08-31T19:57:43.553Z,18.20
2022-08-31T20:00:12.798Z,18.10
2022-08-31T20:02:42.580Z,18.00
2022-08-31T20:05:09.729Z,18.10
2022-08-31T20:07:36.479Z,17.90
2022-08-31T20:10:04.784Z,17.90
2022-08-31T20:12:31.751Z,17.70
2022-08-31T20:14:58.445Z,17.70
2022-08-31T20:17:25.323Z,17.60
2022-08-31T20:19:54.835Z,17.50
2022-08-31T20:22:28.060Z,17.40
2022-08-31T20:24:58.335Z,17.40
2022-08-31T20:27:26.126Z,17.30
2022-08-31T20:29:53.479Z,17.20
2022-08-31T20:32:20.713Z,17.20
2022-08-31T20:34:49.817Z,17.20
2022-08-31T20:37:16.582Z,17.10
2022-08-31T20:39:43.357Z,17.00
2022-08-31T20:42:10.103Z,17.00
2022-08-31T20:44:37.601Z,17.10
2022-08-31T20:47:28.911Z,16.90
2022-08-31T20:50:00.786Z,16.80
2022-08-31T20:52:31.303Z,16.80
2022-08-31T20:55:01.664Z,16.70
2022-08-31T20:57:29.801Z,16.70
2022-08-31T20:59:57.040Z,16.70
2022-08-31T21:02:24.308Z,16.60
2022-08-31T21:04:50.956Z,16.70
2022-08-31T21:07:23.140Z,16.50
2022-08-31T21:09:50.506Z,16.50
2022-08-31T21:12:18.044Z,16.50
2022-08-31T21:14:45.885Z,16.60
2022-08-31T21:17:14.054Z,16.50
2022-08-31T21:19:41.925Z,16.70
2022-08-31T21:22:12.788Z,16.50
2022-08-31T21:24:43.285Z,16.50
2022-08-31T21:27:13.463Z,16.50
2022-08-31T21:29:40.441Z,16.50
2022-08-31T21:32:09.644Z,16.50
2022-08-31T21:34:37.087Z,16.50
2022-08-31T21:37:03.850Z,16.50
2022-08-31T21:39:32.290Z,16.60
2022-08-31T21:41:59.264Z,16.60
2022-08-31T21:44:26.338Z,16.60
2022-08-31T21:46:53.152Z,16.60
2022-08-31T21:49:20.024Z,16.60
2022-08-31T21:51:50.071Z,16.60
2022-08-31T21:54:19.208Z,16.60
2022-08-31T21:56:51.442Z,16.60
2022-08-31T21:59:20.915Z,16.60
2022-08-31T22:01:48.694Z,16.60
2022-08-31T22:04:16.395Z,16.60
2022-08-31T22:06:43.549Z,16.50
2022-08-31T22:09:12.952Z,16.60
2022-08-31T22:11:45.512Z,16.50
2022-08-31T22:14:16.272Z,16.50
2022-08-31T22:16:46.537Z,16.50
2022-08-31T22:19:15.842Z,16.50
2022-08-31T22:21:45.084Z,16.50
2022-08-31T22:24:26.769Z,16.40
2022-08-31T22:26:55.066Z,16.40
2022-08-31T22:29:24.236Z,16.40
2022-08-31T22:31:52.920Z,16.40
2022-08-31T22:34:21.057Z,16.30
2022-08-31T22:36:52.087Z,16.30
2022-08-31T22:39:23.532Z,16.20
2022-08-31T22:41:52.969Z,16.20
2022-08-31T22:44:22.355Z,16.10
2022-08-31T22:46:49.051Z,16.10
2022-08-31T22:49:15.890Z,16.00
2022-08-31T22:51:47.461Z,16.00
2022-08-31T22:54:15.926Z,15.90
2022-08-31T22:56:42.770Z,15.90
2022-08-31T22:59:13.237Z,15.90
2022-08-31T23:01:54.692Z,15.80
2022-08-31T23:04:24.352Z,15.70
2022-08-31T23:06:51.984Z,15.70
2022-08-31T23:09:21.261Z,15.60
2022-08-31T23:11:51.275Z,15.50
2022-08-31T23:14:20.865Z,15.50
2022-08-31T23:16:57.052Z,15.40
2022-08-31T23:19:53.161Z,15.40
2022-08-31T23:22:24.437Z,15.30
2022-08-31T23:24:51.746Z,15.30
2022-08-31T23:27:21.635Z,15.20
2022-08-31T23:29:52.117Z,15.20
2022-08-31T23:32:20.929Z,15.10
2022-08-31T23:34:50.526Z,15.10
2022-08-31T23:37:17.758Z,15.10
2022-08-31T23:39:46.092Z,15.10
2022-08-31T23:42:14.089Z,15.00
2022-08-31T23:44:43.462Z,15.00
2022-08-31T23:47:13.530Z,15.00
2022-08-31T23:49:42.177Z,15.00
2022-08-31T23:52:09.843Z,15.00
2022-08-31T23:54:37.222Z,15.00
2022-08-31T23:57:04.880Z,15.00
2022-08-31T23:59:34.180Z,14.90
